Dawson Springs, Kentucky
Current Conditions -  °F | °C
As of 9:55 AM on Friday 21 Nov 2014 (Local Time) from K2I0 Reporting Station
Clear Clear  
Wind Chill: 31°   Ceiling: Unl
Heat Index: 37°   Visibility: 10mi
Dew Point: 24°   Wind: 8mph
Humidity: 59%   Direction: 110°ESE
Pressure: 30.49"   Gusts: NA
Location:  37.17°N, 87.69°W
Report Text: K2I0 211555Z AUTO 11007KT 10SM CLR 03/M04 A3049 RMK AO2 T00271045
Loading
Personal Weather Stations






























Interactive Weather Map New forecast layout! Learn more

10-Day Weather Forecast

Advertisements
Track Severe Weather on mobile